createdAt,value
2019-03-01T00:00:13.146Z,21.40
2019-03-01T00:03:17.011Z,20.90
2019-03-01T00:06:37.349Z,20.03
2019-03-01T00:09:53.757Z,19.33
2019-03-01T00:13:31.516Z,19.07
2019-03-01T00:17:17.229Z,20.10
2019-03-01T00:21:08.551Z,18.70
2019-03-01T00:24:30.514Z,18.83
2019-03-01T00:28:03.807Z,17.37
2019-03-01T00:31:36.349Z,17.50
2019-03-01T00:35:07.659Z,16.87
2019-03-01T00:38:40.446Z,17.20
2019-03-01T00:42:06.623Z,16.93
2019-03-01T00:45:10.195Z,16.00
2019-03-01T00:48:14.039Z,15.33
2019-03-01T00:51:17.868Z,15.83
2019-03-01T00:54:21.757Z,15.07
2019-03-01T00:57:25.331Z,15.00
2019-03-01T01:00:33.398Z,14.13
2019-03-01T01:03:36.947Z,14.50
2019-03-01T01:06:40.513Z,14.23
2019-03-01T01:09:44.098Z,13.67
2019-03-01T01:12:47.915Z,13.47
2019-03-01T01:15:51.507Z,13.70
2019-03-01T01:18:55.079Z,12.77
2019-03-01T01:21:58.710Z,13.20
2019-03-01T01:25:02.293Z,12.30
2019-03-01T01:28:05.931Z,12.67
2019-03-01T01:31:09.755Z,12.80
2019-03-01T01:34:13.356Z,11.77
2019-03-01T01:37:16.911Z,11.57
2019-03-01T01:40:21.147Z,11.73
2019-03-01T01:43:25.062Z,11.80
2019-03-01T01:46:28.641Z,11.50
2019-03-01T01:49:32.550Z,10.87
2019-03-01T01:52:36.138Z,11.17
2019-03-01T01:55:39.723Z,10.97
2019-03-01T01:58:43.290Z,10.23
2019-03-01T02:01:46.930Z,10.80
2019-03-01T02:04:50.497Z,10.37
2019-03-01T02:07:54.399Z,10.40
2019-03-01T02:10:58.266Z,10.07
2019-03-01T02:14:01.828Z,9.90
2019-03-01T02:17:05.393Z,9.80
2019-03-01T02:20:09.444Z,10.23
2019-03-01T02:23:13.030Z,10.30
2019-03-01T02:26:16.976Z,9.40
2019-03-01T02:29:20.541Z,9.63
2019-03-01T02:32:36.246Z,9.10
2019-03-01T02:35:39.817Z,9.73
2019-03-01T02:38:43.431Z,8.87
2019-03-01T02:41:47.303Z,8.80
2019-03-01T02:44:50.877Z,8.47
2019-03-01T02:47:55.090Z,8.47
2019-03-01T02:50:58.696Z,8.47
2019-03-01T02:54:02.588Z,8.43
2019-03-01T02:57:06.175Z,8.67
2019-03-01T03:00:18.757Z,7.90
2019-03-01T03:03:22.346Z,7.90
2019-03-01T03:06:40.372Z,8.00
2019-03-01T03:09:43.961Z,7.53
2019-03-01T03:12:48.244Z,8.53
2019-03-01T03:15:52.924Z,7.47
2019-03-01T03:18:56.814Z,7.77
2019-03-01T03:22:00.738Z,7.40
2019-03-01T03:25:04.909Z,7.47
2019-03-01T03:28:08.812Z,7.30
2019-03-01T03:31:12.690Z,7.20
2019-03-01T03:34:16.268Z,7.40
2019-03-01T03:37:19.857Z,7.30
2019-03-01T03:40:23.781Z,6.80
2019-03-01T03:43:27.697Z,6.93
2019-03-01T03:46:31.265Z,7.40
2019-03-01T03:49:34.850Z,7.00
2019-03-01T03:52:38.510Z,6.97
2019-03-01T03:55:42.715Z,7.00
2019-03-01T03:58:46.843Z,6.73
2019-03-01T04:01:50.488Z,6.60
2019-03-01T04:04:54.068Z,6.30
2019-03-01T04:07:57.828Z,6.70
2019-03-01T04:11:01.413Z,6.37
2019-03-01T04:14:05.071Z,6.57
2019-03-01T04:17:08.644Z,6.07
2019-03-01T04:20:14.343Z,7.00
2019-03-01T04:23:17.930Z,6.83
2019-03-01T04:26:21.632Z,6.23
2019-03-01T04:29:25.569Z,6.67
2019-03-01T04:32:29.448Z,6.80
2019-03-01T04:35:33.028Z,6.60
2019-03-01T04:38:36.882Z,7.30
2019-03-01T04:41:40.467Z,5.90
2019-03-01T04:44:44.044Z,6.17
2019-03-01T04:47:47.620Z,6.30
2019-03-01T04:50:51.521Z,6.87
2019-03-01T04:53:55.422Z,6.43
2019-03-01T04:56:59.002Z,6.27
2019-03-01T05:00:02.587Z,6.30
2019-03-01T05:03:06.240Z,5.93
2019-03-01T05:06:09.826Z,5.80
2019-03-01T05:09:13.597Z,5.97
2019-03-01T05:12:17.173Z,5.57
2019-03-01T05:15:21.926Z,26.83
2019-03-01T05:18:25.513Z,40.50
2019-03-01T05:21:29.115Z,58.53
2019-03-01T05:24:32.769Z,56.43
2019-03-01T05:27:36.311Z,53.77
2019-03-01T05:30:39.903Z,198.63
2019-03-01T05:33:43.503Z,43.43
2019-03-01T05:36:47.100Z,38.87
2019-03-01T05:39:50.703Z,109.50
2019-03-01T05:42:54.301Z,107.30
2019-03-01T05:45:57.905Z,99.17
2019-03-01T05:49:01.492Z,97.57
2019-03-01T05:52:05.090Z,64.43
2019-03-01T05:55:08.773Z,52.50
2019-03-01T05:58:27.786Z,52.33
2019-03-01T06:02:02.795Z,51.00
2019-03-01T06:05:16.532Z,47.97
2019-03-01T06:08:55.415Z,47.47
2019-03-01T06:12:20.556Z,42.73
2019-03-01T06:15:49.673Z,43.57
2019-03-01T06:19:29.951Z,42.80
2019-03-01T06:23:15.961Z,40.57
2019-03-01T06:27:06.854Z,39.57
2019-03-01T06:30:51.694Z,39.00
2019-03-01T06:34:16.313Z,37.07
2019-03-01T06:38:18.503Z,37.43
2019-03-01T06:41:58.722Z,37.73
2019-03-01T06:45:37.557Z,34.17
2019-03-01T06:48:52.388Z,34.50
2019-03-01T06:51:56.319Z,36.07
2019-03-01T06:54:59.899Z,33.60
2019-03-01T06:58:03.508Z,33.47
2019-03-01T07:01:16.558Z,32.67
2019-03-01T07:04:21.520Z,31.87
2019-03-01T07:07:25.441Z,31.37
2019-03-01T07:10:29.032Z,31.30
2019-03-01T07:13:32.896Z,30.10
2019-03-01T07:16:36.483Z,29.57
2019-03-01T07:19:40.120Z,28.43
2019-03-01T07:22:43.718Z,28.67
2019-03-01T07:25:47.294Z,27.40
2019-03-01T07:28:51.759Z,28.00
2019-03-01T07:31:55.662Z,27.30
2019-03-01T07:34:59.251Z,26.73
2019-03-01T07:38:02.850Z,25.57
2019-03-01T07:41:06.430Z,25.70
2019-03-01T07:44:10.291Z,24.13
2019-03-01T07:47:14.163Z,24.03
2019-03-01T07:50:17.735Z,22.67
2019-03-01T07:53:21.330Z,24.80
2019-03-01T07:56:25.214Z,24.43
2019-03-01T07:59:33.473Z,23.47
2019-03-01T08:02:35.958Z,22.03
2019-03-01T08:05:40.484Z,21.77
2019-03-01T08:08:44.082Z,21.60
2019-03-01T08:11:47.667Z,21.33
2019-03-01T08:14:51.317Z,20.47
2019-03-01T08:17:54.904Z,20.00
2019-03-01T08:20:58.483Z,19.83
2019-03-01T08:24:02.357Z,19.90
2019-03-01T08:27:09.770Z,18.97
2019-03-01T08:30:13.717Z,19.13
2019-03-01T08:33:17.829Z,19.23
2019-03-01T08:36:21.978Z,18.67
2019-03-01T08:39:25.921Z,18.27
2019-03-01T08:42:32.600Z,17.30
2019-03-01T08:45:34.909Z,17.10
2019-03-01T08:48:38.503Z,17.33
2019-03-01T08:51:42.355Z,16.50
2019-03-01T08:54:45.941Z,15.67
2019-03-01T08:57:49.526Z,16.00
2019-03-01T09:00:59.663Z,16.03
2019-03-01T09:04:08.145Z,16.13
2019-03-01T09:07:11.728Z,16.07
2019-03-01T09:10:16.246Z,14.90
2019-03-01T09:13:19.823Z,14.37
2019-03-01T09:16:23.714Z,14.67
2019-03-01T09:19:27.298Z,14.40
2019-03-01T09:22:30.876Z,13.33
2019-03-01T09:25:34.473Z,14.23
2019-03-01T09:28:39.688Z,13.27
2019-03-01T09:31:43.759Z,13.37
2019-03-01T09:34:49.378Z,13.90
2019-03-01T09:37:52.953Z,12.90
2019-03-01T09:40:57.540Z,11.87
2019-03-01T09:44:03.006Z,12.20
2019-03-01T09:47:06.595Z,11.47
2019-03-01T09:50:10.512Z,11.77
2019-03-01T09:53:14.100Z,12.23
2019-03-01T09:56:17.687Z,11.53
2019-03-01T09:59:21.263Z,12.00
2019-03-01T10:02:25.456Z,10.80
2019-03-01T10:05:29.055Z,11.40
2019-03-01T10:08:32.645Z,10.97
2019-03-01T10:11:36.241Z,10.70
2019-03-01T10:14:40.116Z,10.63
2019-03-01T10:17:43.986Z,10.00
2019-03-01T10:20:47.941Z,9.70
2019-03-01T10:23:51.805Z,10.00
2019-03-01T10:26:55.399Z,10.20
2019-03-01T10:29:58.981Z,9.87
2019-03-01T10:33:02.571Z,9.27
2019-03-01T10:36:06.157Z,9.80
2019-03-01T10:39:14.090Z,9.10
2019-03-01T10:42:17.676Z,8.77
2019-03-01T10:45:22.588Z,9.13
2019-03-01T10:48:27.474Z,8.73
2019-03-01T10:51:31.421Z,9.50
2019-03-01T10:54:34.993Z,8.37
2019-03-01T10:57:38.577Z,8.43
2019-03-01T11:00:42.154Z,8.13
2019-03-01T11:03:45.998Z,8.27
2019-03-01T11:06:49.605Z,7.80
2019-03-01T11:09:53.188Z,8.33
2019-03-01T11:12:56.851Z,7.70
2019-03-01T11:16:00.427Z,7.60
2019-03-01T11:19:04.347Z,7.90
2019-03-01T11:22:08.587Z,7.83
2019-03-01T11:25:13.436Z,6.90
2019-03-01T11:28:17.028Z,7.13
2019-03-01T11:31:20.601Z,6.97
2019-03-01T11:34:24.238Z,6.77
2019-03-01T11:37:28.073Z,7.20
2019-03-01T11:40:32.689Z,6.90
2019-03-01T11:43:36.288Z,7.10
2019-03-01T11:46:39.856Z,6.50
2019-03-01T11:49:47.061Z,6.13
2019-03-01T11:52:50.723Z,6.30
2019-03-01T11:55:54.371Z,6.97
2019-03-01T11:58:58.286Z,6.07
2019-03-01T12:02:01.860Z,6.47
2019-03-01T12:05:06.804Z,6.10
2019-03-01T12:08:10.392Z,6.00
2019-03-01T12:11:13.978Z,5.87
2019-03-01T12:14:17.860Z,5.53
2019-03-01T12:17:21.437Z,5.70
2019-03-01T12:20:25.032Z,6.10
2019-03-01T12:23:28.622Z,5.67
2019-03-01T12:26:32.193Z,5.33
2019-03-01T12:29:35.777Z,5.70
2019-03-01T12:32:39.343Z,5.67
2019-03-01T12:35:42.926Z,5.53
2019-03-01T12:38:46.518Z,5.50
2019-03-01T12:41:50.093Z,4.87
2019-03-01T12:44:53.681Z,5.17
2019-03-01T12:47:57.562Z,4.73
2019-03-01T12:51:01.135Z,5.07
2019-03-01T12:54:05.004Z,4.93
2019-03-01T12:57:08.591Z,5.10
2019-03-01T13:00:15.061Z,5.03
2019-03-01T13:03:18.636Z,4.90
2019-03-01T13:06:22.492Z,4.67
2019-03-01T13:09:26.429Z,4.97
2019-03-01T13:12:30.247Z,4.77
2019-03-01T13:15:34.230Z,4.87
2019-03-01T13:18:37.813Z,4.50
2019-03-01T13:21:41.396Z,4.20
2019-03-01T13:24:45.291Z,4.47
2019-03-01T13:27:52.298Z,4.60
2019-03-01T13:30:54.450Z,4.00
2019-03-01T13:33:58.025Z,3.90
2019-03-01T13:37:01.607Z,4.30
2019-03-01T13:40:05.969Z,4.07
2019-03-01T13:43:09.546Z,3.93
2019-03-01T13:46:13.141Z,3.70
2019-03-01T13:49:16.714Z,4.20
2019-03-01T13:52:20.292Z,3.70
2019-03-01T13:55:23.987Z,3.90
2019-03-01T13:58:27.815Z,4.00
2019-03-01T14:01:31.492Z,3.47
2019-03-01T14:04:36.619Z,3.63
2019-03-01T14:07:40.375Z,3.93
2019-03-01T14:10:43.991Z,3.50
2019-03-01T14:13:50.725Z,3.80
2019-03-01T14:16:52.852Z,3.70
2019-03-01T14:19:56.451Z,3.87
2019-03-01T14:23:00.015Z,3.47
2019-03-01T14:26:03.600Z,3.60
2019-03-01T14:29:07.179Z,3.77
2019-03-01T14:32:10.757Z,3.53
2019-03-01T14:35:14.804Z,2.73
2019-03-01T14:38:18.389Z,3.20
2019-03-01T14:41:21.976Z,3.60
2019-03-01T14:44:25.546Z,3.30
2019-03-01T14:47:32.786Z,3.53
2019-03-01T14:50:34.855Z,3.20
2019-03-01T14:53:38.384Z,3.37
2019-03-01T14:57:10.045Z,3.30
2019-03-01T15:00:18.997Z,3.10
2019-03-01T15:03:31.009Z,3.30
2019-03-01T15:06:34.820Z,3.33
2019-03-01T15:09:38.963Z,3.10
2019-03-01T15:12:42.627Z,39.67
2019-03-01T15:15:46.207Z,49.50
2019-03-01T15:18:50.222Z,25.73
2019-03-01T15:21:53.834Z,119.20
2019-03-01T15:24:57.424Z,102.40
2019-03-01T15:28:01.014Z,94.63
2019-03-01T15:31:04.675Z,96.90
2019-03-01T15:34:08.279Z,91.07
2019-03-01T15:37:11.904Z,90.33
2019-03-01T15:40:15.487Z,32.17
2019-03-01T15:43:19.397Z,47.67
2019-03-01T15:46:22.995Z,105.43
2019-03-01T15:49:26.866Z,106.53
2019-03-01T15:52:30.759Z,104.60
2019-03-01T15:55:34.363Z,101.40
2019-03-01T15:58:38.301Z,98.30
2019-03-01T16:01:43.721Z,96.07
2019-03-01T16:04:47.206Z,93.60
2019-03-01T16:07:50.789Z,91.03
2019-03-01T16:10:54.394Z,87.93
2019-03-01T16:13:58.310Z,88.03
2019-03-01T16:17:02.573Z,85.37
2019-03-01T16:20:09.593Z,83.47
2019-03-01T16:23:13.195Z,81.30
2019-03-01T16:26:16.784Z,76.67
2019-03-01T16:29:20.693Z,76.50
2019-03-01T16:32:24.295Z,75.23
2019-03-01T16:35:27.877Z,71.23
2019-03-01T16:38:40.703Z,70.47
2019-03-01T16:41:39.686Z,67.93
2019-03-01T16:44:44.767Z,66.63
2019-03-01T16:47:48.328Z,67.53
2019-03-01T16:50:52.286Z,67.13
2019-03-01T16:53:55.886Z,63.07
2019-03-01T16:56:59.472Z,61.93
2019-03-01T17:00:03.083Z,59.83
2019-03-01T17:03:07.008Z,58.47
2019-03-01T17:06:13.898Z,58.57
2019-03-01T17:09:16.688Z,56.63
2019-03-01T17:12:22.410Z,53.20
2019-03-01T17:15:25.857Z,52.10
2019-03-01T17:18:29.435Z,50.93
2019-03-01T17:21:34.266Z,49.77
2019-03-01T17:24:37.857Z,50.90
2019-03-01T17:27:43.288Z,48.57
2019-03-01T17:30:50.604Z,50.27
2019-03-01T17:33:53.073Z,49.07
2019-03-01T17:36:56.674Z,47.90
2019-03-01T17:40:00.262Z,47.37
2019-03-01T17:43:03.856Z,47.50
2019-03-01T17:46:07.445Z,46.83
2019-03-01T17:49:11.838Z,45.00
2019-03-01T17:52:15.413Z,44.17
2019-03-01T17:55:19.002Z,44.90
2019-03-01T17:58:22.599Z,43.07
2019-03-01T18:01:26.186Z,42.60
2019-03-01T18:04:29.764Z,22.53
2019-03-01T18:07:33.358Z,13.87
2019-03-01T18:10:36.954Z,47.80
2019-03-01T18:13:40.846Z,89.63
2019-03-01T18:16:44.464Z,75.87
2019-03-01T18:19:48.031Z,66.30
2019-03-01T18:22:51.641Z,67.87
2019-03-01T18:25:55.239Z,67.47
2019-03-01T18:29:00.875Z,65.77
2019-03-01T18:32:07.060Z,65.67
2019-03-01T18:35:11.605Z,64.87
2019-03-01T18:38:15.827Z,62.27
2019-03-01T18:41:19.411Z,61.13
2019-03-01T18:44:25.857Z,59.17
2019-03-01T18:47:30.735Z,60.83
2019-03-01T18:50:34.724Z,60.40
2019-03-01T18:53:38.303Z,22.23
2019-03-01T18:56:41.914Z,7.77
2019-03-01T18:59:45.506Z,7.37
2019-03-01T19:02:49.088Z,4.67
2019-03-01T19:05:52.770Z,4.23
2019-03-01T19:08:56.357Z,5.13
2019-03-01T19:11:59.936Z,4.40
2019-03-01T19:15:03.605Z,4.30
2019-03-01T19:18:07.271Z,4.30
2019-03-01T19:21:13.943Z,5.67
2019-03-01T19:24:16.592Z,5.87
2019-03-01T19:27:20.163Z,6.27
2019-03-01T19:30:23.778Z,6.10
2019-03-01T19:33:27.378Z,6.10
2019-03-01T19:36:30.966Z,5.97
2019-03-01T19:39:35.388Z,6.00
2019-03-01T19:42:40.014Z,7.40
2019-03-01T19:45:43.875Z,13.87
2019-03-01T19:48:47.542Z,48.40
2019-03-01T19:51:51.747Z,62.40
2019-03-01T19:54:55.348Z,60.90
2019-03-01T19:57:59.122Z,60.17
2019-03-01T20:01:02.714Z,60.17
2019-03-01T20:04:06.403Z,57.27
2019-03-01T20:07:10.058Z,56.03
2019-03-01T20:10:15.968Z,55.93
2019-03-01T20:13:19.790Z,38.10
2019-03-01T20:16:23.508Z,26.03
2019-03-01T20:19:27.083Z,26.20
2019-03-01T20:22:32.136Z,27.97
2019-03-01T20:25:35.941Z,27.73
2019-03-01T20:28:39.853Z,27.57
2019-03-01T20:31:43.434Z,28.37
2019-03-01T20:34:47.331Z,27.03
2019-03-01T20:37:50.977Z,24.20
2019-03-01T20:40:55.150Z,12.63
2019-03-01T20:43:58.779Z,47.43
2019-03-01T20:47:02.378Z,24.73
2019-03-01T20:50:06.678Z,61.43
2019-03-01T20:53:13.314Z,112.33
2019-03-01T20:56:17.126Z,112.00
2019-03-01T20:59:21.021Z,105.87
2019-03-01T21:02:24.652Z,104.03
2019-03-01T21:05:29.057Z,105.40
2019-03-01T21:08:33.558Z,102.17
2019-03-01T21:11:37.357Z,99.77
2019-03-01T21:14:41.246Z,98.47
2019-03-01T21:17:44.943Z,94.37
2019-03-01T21:20:50.508Z,93.13
2019-03-01T21:23:54.201Z,93.70
2019-03-01T21:26:58.243Z,91.63
2019-03-01T21:30:01.948Z,89.70
2019-03-01T21:33:06.258Z,89.20
2019-03-01T21:36:10.163Z,88.07
2019-03-01T21:39:13.792Z,86.20
2019-03-01T21:42:20.283Z,81.50
2019-03-01T21:45:23.257Z,81.50
2019-03-01T21:48:27.000Z,47.37
2019-03-01T21:51:30.949Z,51.47
2019-03-01T21:54:36.105Z,43.43
2019-03-01T21:57:39.979Z,41.80
2019-03-01T22:00:43.736Z,39.83
2019-03-01T22:03:47.623Z,14.63
2019-03-01T22:06:51.531Z,31.07
2019-03-01T22:09:56.724Z,82.30
2019-03-01T22:13:01.428Z,83.53
2019-03-01T22:16:05.214Z,66.50
2019-03-01T22:19:08.808Z,59.73
2019-03-01T22:22:12.638Z,54.93
2019-03-01T22:25:18.557Z,54.23
2019-03-01T22:28:22.244Z,26.90
2019-03-01T22:31:26.409Z,129.57
2019-03-01T22:34:31.038Z,114.67
2019-03-01T22:37:35.839Z,93.07
2019-03-01T22:40:39.810Z,79.70
2019-03-01T22:43:43.427Z,71.90
2019-03-01T22:46:47.133Z,67.93
2019-03-01T22:49:51.113Z,64.23
2019-03-01T22:52:55.097Z,61.50
2019-03-01T22:55:58.746Z,59.03
2019-03-01T22:59:02.785Z,58.20
2019-03-01T23:02:09.304Z,56.13
2019-03-01T23:05:13.723Z,56.03
2019-03-01T23:08:17.949Z,55.17
2019-03-01T23:11:21.870Z,53.30
2019-03-01T23:14:27.401Z,52.80
2019-03-01T23:17:31.320Z,52.13
2019-03-01T23:20:35.044Z,64.47
2019-03-01T23:23:38.649Z,53.20
2019-03-01T23:26:42.367Z,124.87
2019-03-01T23:29:45.962Z,153.03
2019-03-01T23:32:52.720Z,142.73
2019-03-01T23:35:55.822Z,142.43
2019-03-01T23:38:59.419Z,142.50
2019-03-01T23:42:03.022Z,137.87
2019-03-01T23:45:07.047Z,134.77
2019-03-01T23:48:13.578Z,135.57
2019-03-01T23:51:16.608Z,134.87
2019-03-01T23:54:20.206Z,132.43
2019-03-01T23:57:24.069Z,129.70
